createdAt,value
2023-05-08T00:02:05.685Z,89.51
2023-05-08T00:04:38.667Z,89.67
2023-05-08T00:07:11.130Z,89.55
2023-05-08T00:09:48.942Z,89.48
2023-05-08T00:12:21.489Z,89.49
2023-05-08T00:14:53.675Z,89.60
2023-05-08T00:17:28.216Z,89.67
2023-05-08T00:20:00.471Z,89.80
2023-05-08T00:22:32.757Z,89.87
2023-05-08T00:25:05.832Z,89.87
2023-05-08T00:27:41.293Z,89.94
2023-05-08T00:30:14.903Z,89.72
2023-05-08T00:32:47.428Z,90.02
2023-05-08T00:35:19.778Z,90.10
2023-05-08T00:37:51.929Z,89.97
2023-05-08T00:40:24.065Z,89.97
2023-05-08T00:42:56.457Z,90.13
2023-05-08T00:45:33.884Z,90.64
2023-05-08T00:48:09.265Z,90.62
2023-05-08T00:50:42.037Z,90.50
2023-05-08T00:53:18.454Z,90.18
2023-05-08T00:55:53.961Z,90.28
2023-05-08T00:58:29.289Z,90.53
2023-05-08T01:01:01.933Z,90.74
2023-05-08T01:03:37.024Z,90.82
2023-05-08T01:06:10.309Z,91.06
2023-05-08T01:08:46.613Z,91.33
2023-05-08T01:11:26.360Z,91.65
2023-05-08T01:14:09.061Z,91.82
2023-05-08T01:16:46.183Z,92.21
2023-05-08T01:19:54.103Z,92.28
2023-05-08T01:22:45.488Z,92.38
2023-05-08T01:25:50.370Z,92.52
2023-05-08T01:28:54.183Z,92.40
2023-05-08T01:31:45.307Z,92.54
2023-05-08T01:34:24.896Z,92.45
2023-05-08T01:37:02.076Z,92.42
2023-05-08T01:39:44.835Z,92.60
2023-05-08T01:42:26.540Z,92.64
2023-05-08T01:45:03.536Z,92.70
2023-05-08T01:47:39.594Z,92.95
2023-05-08T01:50:19.754Z,93.19
2023-05-08T01:53:00.140Z,93.19
2023-05-08T01:55:36.927Z,93.18
2023-05-08T01:58:12.872Z,93.04
2023-05-08T02:00:48.427Z,93.24
2023-05-08T02:03:24.834Z,93.30
2023-05-08T02:05:59.187Z,93.43
2023-05-08T02:08:32.801Z,93.48
2023-05-08T02:11:10.301Z,93.51
2023-05-08T02:13:44.509Z,93.62
2023-05-08T02:16:22.216Z,93.53
2023-05-08T02:18:57.325Z,93.49
2023-05-08T02:21:33.394Z,93.27
2023-05-08T02:24:09.642Z,93.42
2023-05-08T02:26:43.630Z,93.54
2023-05-08T02:29:20.283Z,93.32
2023-05-08T02:31:54.331Z,93.13
2023-05-08T02:34:31.186Z,93.00
2023-05-08T02:37:04.729Z,93.17
2023-05-08T02:39:39.593Z,93.12
2023-05-08T02:42:11.978Z,93.18
2023-05-08T02:44:44.507Z,93.08
2023-05-08T02:47:23.632Z,92.97
2023-05-08T02:50:05.128Z,92.93
2023-05-08T02:52:49.254Z,93.07
2023-05-08T02:55:35.862Z,93.28
2023-05-08T02:58:18.847Z,93.30
2023-05-08T03:01:07.112Z,93.36
2023-05-08T03:03:47.428Z,93.49
2023-05-08T03:06:25.547Z,93.46
2023-05-08T03:09:02.934Z,93.48
2023-05-08T03:11:42.558Z,93.51
2023-05-08T03:14:21.087Z,93.52
2023-05-08T03:16:57.409Z,93.26
2023-05-08T03:19:37.270Z,93.07
2023-05-08T03:22:12.696Z,92.88
2023-05-08T03:24:47.968Z,92.87
2023-05-08T03:27:21.612Z,92.85
2023-05-08T03:29:56.046Z,92.78
2023-05-08T03:32:30.096Z,92.40
2023-05-08T03:35:05.363Z,92.54
2023-05-08T03:37:38.017Z,92.68
2023-05-08T03:40:12.275Z,92.64
2023-05-08T03:42:45.392Z,92.87
2023-05-08T03:45:19.494Z,92.78
2023-05-08T03:47:53.953Z,92.98
2023-05-08T03:50:27.521Z,93.13
2023-05-08T03:53:01.101Z,93.09
2023-05-08T03:55:34.667Z,93.06
2023-05-08T03:58:16.549Z,93.33
2023-05-08T04:01:00.469Z,93.59
2023-05-08T04:03:43.030Z,94.01
2023-05-08T04:06:28.767Z,94.17
2023-05-08T04:09:10.119Z,94.30
2023-05-08T04:11:53.529Z,94.26
2023-05-08T04:14:31.772Z,94.43
2023-05-08T04:17:08.637Z,94.27
2023-05-08T04:19:44.699Z,94.34
2023-05-08T04:22:22.164Z,94.35
2023-05-08T04:24:57.226Z,94.41
2023-05-08T04:27:30.008Z,94.52
2023-05-08T04:30:02.849Z,94.51
2023-05-08T04:32:38.373Z,94.32
2023-05-08T04:35:13.962Z,94.54
2023-05-08T04:37:47.548Z,94.27
2023-05-08T04:40:19.940Z,94.47
2023-05-08T04:42:52.197Z,94.61
2023-05-08T04:45:25.064Z,94.58
2023-05-08T04:47:57.194Z,94.65
2023-05-08T04:50:29.484Z,94.46
2023-05-08T04:53:01.692Z,94.25
2023-05-08T04:55:34.030Z,94.36
2023-05-08T04:58:06.108Z,94.30
2023-05-08T05:00:39.286Z,94.25
2023-05-08T05:03:11.807Z,94.21
2023-05-08T05:05:44.326Z,94.52
2023-05-08T05:08:18.953Z,94.71
2023-05-08T05:10:55.203Z,94.50
2023-05-08T05:13:27.700Z,94.63
2023-05-08T05:16:02.182Z,94.43
2023-05-08T05:18:51.415Z,94.35
2023-05-08T05:21:23.665Z,94.26
2023-05-08T05:23:55.814Z,94.19
2023-05-08T05:26:28.127Z,94.43
2023-05-08T05:29:00.451Z,94.10
2023-05-08T05:31:32.773Z,94.19
2023-05-08T05:34:05.077Z,94.08
2023-05-08T05:36:37.534Z,93.96
2023-05-08T05:39:10.115Z,93.78
2023-05-08T05:41:44.291Z,93.73
2023-05-08T05:44:16.605Z,93.58
2023-05-08T05:46:48.858Z,93.39
2023-05-08T05:49:21.679Z,93.73
2023-05-08T05:51:53.769Z,93.49
2023-05-08T05:54:26.451Z,92.99
2023-05-08T05:56:58.783Z,93.34
2023-05-08T05:59:30.868Z,93.39
2023-05-08T06:02:03.693Z,93.28
2023-05-08T06:04:35.894Z,93.05
2023-05-08T06:07:08.498Z,93.06
2023-05-08T06:09:41.157Z,92.80
2023-05-08T06:12:15.216Z,92.65
2023-05-08T06:14:48.166Z,92.66
2023-05-08T06:17:20.635Z,93.12
2023-05-08T06:19:56.063Z,92.68
2023-05-08T06:22:29.479Z,92.60
2023-05-08T06:25:01.514Z,92.61
2023-05-08T06:27:33.972Z,91.94
2023-05-08T06:30:10.706Z,90.74
2023-05-08T06:32:42.899Z,91.26
2023-05-08T06:35:19.506Z,90.97
2023-05-08T06:37:51.683Z,91.19
2023-05-08T06:40:24.736Z,91.17
2023-05-08T06:42:56.826Z,91.77
2023-05-08T06:45:29.010Z,91.58
2023-05-08T06:48:03.726Z,91.05
2023-05-08T06:50:38.607Z,90.33
2023-05-08T06:53:10.807Z,89.23
2023-05-08T06:55:45.844Z,87.83
2023-05-08T06:58:17.989Z,85.81
2023-05-08T07:00:50.109Z,88.28
2023-05-08T07:03:22.522Z,87.68
2023-05-08T07:05:54.618Z,87.89
2023-05-08T07:08:26.991Z,87.82
2023-05-08T07:11:01.505Z,87.11
2023-05-08T07:13:34.701Z,84.51
2023-05-08T07:16:12.012Z,83.48
2023-05-08T07:18:44.948Z,82.92
2023-05-08T07:21:18.862Z,83.77
2023-05-08T07:23:54.750Z,84.20
2023-05-08T07:26:27.937Z,82.98
2023-05-08T07:29:02.194Z,82.71
2023-05-08T07:31:34.385Z,83.14
2023-05-08T07:34:07.360Z,80.84
2023-05-08T07:36:40.365Z,79.16
2023-05-08T07:39:12.583Z,79.67
2023-05-08T07:41:47.149Z,80.49
2023-05-08T07:44:20.523Z,77.59
2023-05-08T07:46:52.583Z,79.55
2023-05-08T07:49:24.876Z,79.69
2023-05-08T07:51:57.027Z,79.34
2023-05-08T07:54:29.213Z,77.19
2023-05-08T07:57:01.609Z,76.12
2023-05-08T07:59:34.234Z,76.54
2023-05-08T08:02:06.423Z,76.90
2023-05-08T08:04:38.700Z,77.95
2023-05-08T08:07:13.772Z,75.39
2023-05-08T08:09:46.237Z,77.07
2023-05-08T08:12:18.406Z,77.56
2023-05-08T08:14:50.535Z,77.06
2023-05-08T08:17:22.947Z,76.70
2023-05-08T08:20:00.879Z,75.68
2023-05-08T08:22:33.423Z,75.01
2023-05-08T08:25:06.104Z,75.61
2023-05-08T08:27:39.270Z,74.30
2023-05-08T08:30:16.977Z,74.32
2023-05-08T08:32:50.744Z,73.67
2023-05-08T08:35:29.156Z,74.18
2023-05-08T08:38:01.313Z,74.25
2023-05-08T08:40:33.773Z,74.00
2023-05-08T08:43:05.946Z,73.33
2023-05-08T08:45:41.757Z,72.97
2023-05-08T08:48:14.702Z,73.33
2023-05-08T08:50:48.751Z,71.15
2023-05-08T08:53:28.433Z,72.73
2023-05-08T08:56:02.258Z,70.97
2023-05-08T08:58:39.372Z,70.68
2023-05-08T09:01:16.586Z,72.07
2023-05-08T09:03:50.143Z,72.55
2023-05-08T09:06:22.616Z,70.62
2023-05-08T09:08:58.062Z,68.86
2023-05-08T09:11:30.739Z,66.68
2023-05-08T09:14:03.598Z,62.11
2023-05-08T09:16:35.938Z,62.97
2023-05-08T09:19:08.555Z,65.76
2023-05-08T09:21:40.720Z,65.92
2023-05-08T09:24:13.001Z,63.33
2023-05-08T09:26:45.418Z,64.50
2023-05-08T09:29:20.042Z,64.75
2023-05-08T09:31:53.866Z,65.68
2023-05-08T09:34:30.059Z,66.60
2023-05-08T09:37:14.091Z,65.17
2023-05-08T09:39:47.799Z,66.55
2023-05-08T09:42:20.952Z,66.57
2023-05-08T09:44:54.019Z,67.05
2023-05-08T09:47:27.086Z,66.26
2023-05-08T09:50:06.841Z,66.59
2023-05-08T09:52:40.047Z,67.40
2023-05-08T09:55:14.317Z,66.61
2023-05-08T09:57:57.868Z,63.33
2023-05-08T10:00:33.273Z,65.28
2023-05-08T10:03:06.302Z,64.97
2023-05-08T10:05:38.401Z,65.11
2023-05-08T10:08:23.404Z,64.84
2023-05-08T10:10:55.477Z,63.70
2023-05-08T10:13:27.605Z,62.25
2023-05-08T10:15:59.838Z,63.77
2023-05-08T10:18:36.541Z,63.87
2023-05-08T10:21:10.156Z,63.40
2023-05-08T10:23:43.560Z,63.32
2023-05-08T10:26:20.379Z,63.12
2023-05-08T10:28:58.600Z,62.90
2023-05-08T10:31:44.935Z,61.59
2023-05-08T10:34:35.124Z,61.67
2023-05-08T10:37:09.430Z,61.15
2023-05-08T10:39:43.072Z,59.51
2023-05-08T10:42:16.721Z,60.09
2023-05-08T10:44:53.798Z,58.50
2023-05-08T10:47:34.660Z,60.62
2023-05-08T10:50:20.609Z,60.61
2023-05-08T10:53:00.103Z,60.54
2023-05-08T10:55:33.933Z,60.09
2023-05-08T10:58:07.684Z,60.68
2023-05-08T11:01:07.957Z,57.75
2023-05-08T11:03:44.080Z,54.47
2023-05-08T11:06:17.400Z,54.40
2023-05-08T11:08:54.974Z,51.34
2023-05-08T11:11:38.178Z,52.77
2023-05-08T11:14:19.447Z,57.20
2023-05-08T11:17:08.305Z,56.87
2023-05-08T11:19:56.231Z,56.73
2023-05-08T11:22:30.723Z,56.59
2023-05-08T11:25:06.209Z,57.09
2023-05-08T11:27:58.441Z,56.60
2023-05-08T11:30:41.991Z,55.68
2023-05-08T11:33:19.017Z,54.94
2023-05-08T11:35:56.182Z,53.12
2023-05-08T11:38:30.671Z,54.83
2023-05-08T11:41:05.116Z,55.58
2023-05-08T11:44:17.986Z,55.31
2023-05-08T11:46:54.747Z,55.28
2023-05-08T11:49:29.981Z,55.11
2023-05-08T11:52:06.009Z,54.59
2023-05-08T11:54:40.936Z,53.47
2023-05-08T11:57:13.114Z,52.33
2023-05-08T11:59:45.554Z,51.95
2023-05-08T12:02:18.482Z,52.88
2023-05-08T12:04:50.870Z,53.01
2023-05-08T12:07:27.220Z,50.50
2023-05-08T12:10:01.741Z,50.57
2023-05-08T12:12:42.539Z,49.52
2023-05-08T12:15:16.530Z,50.26
2023-05-08T12:17:48.982Z,50.66
2023-05-08T12:20:21.893Z,51.69
2023-05-08T12:22:54.595Z,50.97
2023-05-08T12:25:28.639Z,51.46
2023-05-08T12:28:01.178Z,52.68
2023-05-08T12:30:33.476Z,52.14
2023-05-08T12:33:07.132Z,50.71
2023-05-08T12:35:39.950Z,52.49
2023-05-08T12:38:12.205Z,52.87
2023-05-08T12:40:46.519Z,52.16
2023-05-08T12:43:18.569Z,52.67
2023-05-08T12:45:53.659Z,50.38
2023-05-08T12:48:25.792Z,51.73
2023-05-08T12:51:02.686Z,50.85
2023-05-08T12:53:35.897Z,50.52
2023-05-08T12:56:11.129Z,50.71
2023-05-08T12:58:43.328Z,49.81
2023-05-08T13:01:16.627Z,48.29
2023-05-08T13:04:01.654Z,48.92
2023-05-08T13:06:34.678Z,48.66
2023-05-08T13:09:06.841Z,49.66
2023-05-08T13:11:39.613Z,49.77
2023-05-08T13:14:11.997Z,47.75
2023-05-08T13:16:48.080Z,48.28
2023-05-08T13:19:20.948Z,48.82
2023-05-08T13:21:53.869Z,47.03
2023-05-08T13:24:27.021Z,46.83
2023-05-08T13:26:59.227Z,48.51
2023-05-08T13:29:31.485Z,48.16
2023-05-08T13:32:04.020Z,47.71
2023-05-08T13:34:39.444Z,48.73
2023-05-08T13:37:16.457Z,48.89
2023-05-08T13:39:51.145Z,48.90
2023-05-08T13:42:25.492Z,49.31
2023-05-08T13:48:08.438Z,46.91
2023-05-08T13:50:40.894Z,46.62
2023-05-08T13:53:13.081Z,47.05
2023-05-08T13:55:45.410Z,48.43
2023-05-08T13:58:20.431Z,48.43
2023-05-08T14:00:53.928Z,48.50
2023-05-08T14:03:26.215Z,47.80
2023-05-08T14:05:58.433Z,48.43
2023-05-08T14:08:33.064Z,48.47
2023-05-08T14:11:07.357Z,48.48
2023-05-08T14:13:39.528Z,48.75
2023-05-08T14:16:14.467Z,49.05
2023-05-08T14:18:46.618Z,49.10
2023-05-08T14:21:18.724Z,48.85
2023-05-08T14:23:50.875Z,48.85
2023-05-08T14:26:23.708Z,48.85
2023-05-08T14:28:55.933Z,48.00
2023-05-08T14:31:28.491Z,48.41
2023-05-08T14:34:02.160Z,48.32
2023-05-08T14:36:37.430Z,48.08
2023-05-08T14:39:10.076Z,47.94
2023-05-08T14:41:48.120Z,48.66
2023-05-08T14:44:34.158Z,48.25
2023-05-08T14:47:06.717Z,48.24
2023-05-08T14:49:41.376Z,47.73
2023-05-08T14:52:13.515Z,48.19
2023-05-08T14:54:48.026Z,48.80
2023-05-08T14:57:20.258Z,48.56
2023-05-08T14:59:55.351Z,48.28
2023-05-08T15:02:27.770Z,48.61
2023-05-08T15:05:00.023Z,48.53
2023-05-08T15:07:32.320Z,47.07
2023-05-08T15:10:04.629Z,47.29
2023-05-08T15:12:37.060Z,47.53
2023-05-08T15:15:10.519Z,46.19
2023-05-08T15:17:44.610Z,46.35
2023-05-08T15:20:17.196Z,46.60
2023-05-08T15:22:49.389Z,47.45
2023-05-08T15:25:23.475Z,47.32
2023-05-08T15:27:56.418Z,47.55
2023-05-08T15:30:33.020Z,48.11
2023-05-08T15:33:11.559Z,47.19
2023-05-08T15:35:44.466Z,47.79
2023-05-08T15:38:17.117Z,47.41
2023-05-08T15:40:51.722Z,46.89
2023-05-08T15:43:26.507Z,47.38
2023-05-08T15:45:59.142Z,47.00
2023-05-08T15:48:31.813Z,47.28
2023-05-08T15:51:04.042Z,47.89
2023-05-08T15:53:36.652Z,47.74
2023-05-08T15:56:09.569Z,47.75
2023-05-08T15:58:41.631Z,47.97
2023-05-08T16:01:13.905Z,48.37
2023-05-08T16:03:46.136Z,47.47
2023-05-08T16:06:18.334Z,47.44
2023-05-08T16:08:52.601Z,46.27
2023-05-08T16:11:24.960Z,46.42
2023-05-08T16:13:59.000Z,46.88
2023-05-08T16:16:31.434Z,47.29
2023-05-08T16:19:03.783Z,47.69
2023-05-08T16:21:36.294Z,47.58
2023-05-08T16:24:09.114Z,47.86
2023-05-08T16:26:41.594Z,47.94
2023-05-08T16:29:13.718Z,47.55
2023-05-08T16:31:46.045Z,47.88
2023-05-08T16:34:18.334Z,48.41
2023-05-08T16:36:50.537Z,48.45
2023-05-08T16:39:22.901Z,48.42
2023-05-08T16:41:54.999Z,48.39
2023-05-08T16:44:27.074Z,48.55
2023-05-08T16:46:59.582Z,48.96
2023-05-08T16:49:32.034Z,49.37
2023-05-08T16:52:04.438Z,49.04
2023-05-08T16:54:36.561Z,48.06
2023-05-08T16:57:08.694Z,48.61
2023-05-08T16:59:41.428Z,48.83
2023-05-08T17:02:18.729Z,48.89
2023-05-08T17:04:51.646Z,49.19
2023-05-08T17:07:24.794Z,49.06
2023-05-08T17:10:00.281Z,48.95
2023-05-08T17:12:32.532Z,48.90
2023-05-08T17:15:05.077Z,49.07
2023-05-08T17:17:37.793Z,49.36
2023-05-08T17:20:12.962Z,49.67
2023-05-08T17:22:49.318Z,49.29
2023-05-08T17:25:22.539Z,49.72
2023-05-08T17:27:54.850Z,49.91
2023-05-08T17:30:27.593Z,49.87
2023-05-08T17:32:59.981Z,49.78
2023-05-08T17:35:32.196Z,49.86
2023-05-08T17:38:04.402Z,49.84
2023-05-08T17:40:36.864Z,49.99
2023-05-08T17:43:09.527Z,50.09
2023-05-08T17:45:41.923Z,50.48
2023-05-08T17:48:14.262Z,50.56
2023-05-08T17:50:49.155Z,50.72
2023-05-08T17:53:21.477Z,50.97
2023-05-08T17:55:54.167Z,51.04
2023-05-08T17:58:26.866Z,51.19
2023-05-08T18:00:59.098Z,51.64
2023-05-08T18:03:31.963Z,51.73
2023-05-08T18:06:04.078Z,52.11
2023-05-08T18:08:36.619Z,52.33
2023-05-08T18:11:16.191Z,52.94
2023-05-08T18:13:48.524Z,53.05
2023-05-08T18:16:22.232Z,53.27
2023-05-08T18:18:54.547Z,53.88
2023-05-08T18:21:26.684Z,54.18
2023-05-08T18:23:58.876Z,54.44
2023-05-08T18:26:31.477Z,54.73
2023-05-08T18:29:03.898Z,55.12
2023-05-08T18:31:38.662Z,55.21
2023-05-08T18:34:13.955Z,55.50
2023-05-08T18:36:46.413Z,55.79
2023-05-08T18:39:19.089Z,56.24
2023-05-08T18:41:51.379Z,56.64
2023-05-08T18:44:24.439Z,56.85
2023-05-08T18:46:57.180Z,57.19
2023-05-08T18:49:29.310Z,57.48
2023-05-08T18:52:04.133Z,57.94
2023-05-08T18:54:36.280Z,58.28
2023-05-08T18:57:08.357Z,58.54
2023-05-08T18:59:43.024Z,59.14
2023-05-08T19:02:15.657Z,59.86
2023-05-08T19:04:48.799Z,60.26
2023-05-08T19:07:20.916Z,60.47
2023-05-08T19:09:53.281Z,60.53
2023-05-08T19:12:29.068Z,61.10
2023-05-08T19:15:01.215Z,61.47
2023-05-08T19:17:34.951Z,61.96
2023-05-08T19:20:08.638Z,62.12
2023-05-08T19:22:40.808Z,62.47
2023-05-08T19:25:13.814Z,62.86
2023-05-08T19:27:46.039Z,63.06
2023-05-08T19:30:18.332Z,63.29
2023-05-08T19:32:50.517Z,63.55
2023-05-08T19:35:22.747Z,63.64
2023-05-08T19:37:54.838Z,63.97
2023-05-08T19:40:26.897Z,64.40
2023-05-08T19:42:59.267Z,64.28
2023-05-08T19:45:31.502Z,64.69
2023-05-08T19:48:08.038Z,64.91
2023-05-08T19:50:43.455Z,65.20
2023-05-08T19:53:15.680Z,65.51
2023-05-08T19:55:49.463Z,65.49
2023-05-08T19:58:21.627Z,65.94
2023-05-08T20:00:53.855Z,66.20
2023-05-08T20:03:27.331Z,66.54
2023-05-08T20:05:59.712Z,66.40
2023-05-08T20:08:32.035Z,66.65
2023-05-08T20:11:05.592Z,66.99
2023-05-08T20:13:38.109Z,66.97
2023-05-08T20:16:12.710Z,67.37
2023-05-08T20:18:45.006Z,67.54
2023-05-08T20:21:17.202Z,67.95
2023-05-08T20:23:49.482Z,67.97
2023-05-08T20:26:23.965Z,68.36
2023-05-08T20:28:56.577Z,68.56
2023-05-08T20:31:30.777Z,68.73
2023-05-08T20:34:03.103Z,68.84
2023-05-08T20:36:36.584Z,69.03
2023-05-08T20:39:09.273Z,69.21
2023-05-08T20:41:41.564Z,69.37
2023-05-08T20:44:17.160Z,69.49
2023-05-08T20:46:49.287Z,69.58
2023-05-08T20:49:24.912Z,69.66
2023-05-08T20:51:57.078Z,70.05
2023-05-08T20:54:30.019Z,70.15
2023-05-08T20:57:02.817Z,70.24
2023-05-08T20:59:34.994Z,70.53
2023-05-08T21:02:07.207Z,70.75
2023-05-08T21:04:39.448Z,70.91
2023-05-08T21:07:11.992Z,71.02
2023-05-08T21:09:44.171Z,71.16
2023-05-08T21:12:16.869Z,71.51
2023-05-08T21:14:50.000Z,71.63
2023-05-08T21:17:24.975Z,71.80
2023-05-08T21:20:03.417Z,71.98
2023-05-08T21:22:37.439Z,72.00
2023-05-08T21:25:21.381Z,72.23
2023-05-08T21:27:55.305Z,72.39
2023-05-08T21:30:27.906Z,72.41
2023-05-08T21:33:00.217Z,72.68
2023-05-08T21:35:35.363Z,72.87
2023-05-08T21:38:07.781Z,72.85
2023-05-08T21:40:40.982Z,72.88
2023-05-08T21:43:13.804Z,73.19
2023-05-08T21:45:45.992Z,73.31
2023-05-08T21:48:18.594Z,73.58
2023-05-08T21:50:50.721Z,73.55
2023-05-08T21:53:23.830Z,73.82
2023-05-08T21:55:56.088Z,73.79
2023-05-08T21:58:28.249Z,73.99
2023-05-08T22:01:00.542Z,73.97
2023-05-08T22:03:32.887Z,74.13
2023-05-08T22:06:05.345Z,74.61
2023-05-08T22:08:37.578Z,74.50
2023-05-08T22:11:12.495Z,74.55
2023-05-08T22:13:44.765Z,74.52
2023-05-08T22:16:17.502Z,74.52
2023-05-08T22:18:50.059Z,74.74
2023-05-08T22:21:25.003Z,74.88
2023-05-08T22:23:57.718Z,74.92
2023-05-08T22:26:30.665Z,75.03
2023-05-08T22:29:02.864Z,75.27
2023-05-08T22:31:35.445Z,75.43
2023-05-08T22:34:07.698Z,75.73
2023-05-08T22:36:40.186Z,75.43
2023-05-08T22:39:13.050Z,75.55
2023-05-08T22:41:45.245Z,75.69
2023-05-08T22:44:17.630Z,75.86
2023-05-08T22:46:50.249Z,75.91
2023-05-08T22:49:23.056Z,75.96
2023-05-08T22:51:55.553Z,75.98
2023-05-08T22:54:27.833Z,76.06
2023-05-08T22:57:00.012Z,76.28
2023-05-08T22:59:32.181Z,76.60
2023-05-08T23:02:04.421Z,76.40
2023-05-08T23:04:36.680Z,76.49
2023-05-08T23:07:09.344Z,76.61
2023-05-08T23:09:41.728Z,76.66
2023-05-08T23:12:16.841Z,76.83
2023-05-08T23:14:49.163Z,76.91
2023-05-08T23:17:21.443Z,77.02
2023-05-08T23:19:53.754Z,77.13
2023-05-08T23:22:25.935Z,77.38
2023-05-08T23:25:00.691Z,77.20
2023-05-08T23:27:34.921Z,77.33
2023-05-08T23:30:08.643Z,77.37
2023-05-08T23:32:41.670Z,77.33
2023-05-08T23:35:18.192Z,77.53
2023-05-08T23:37:56.614Z,77.70
2023-05-08T23:40:29.067Z,77.94
2023-05-08T23:43:01.209Z,78.02
2023-05-08T23:45:33.491Z,78.03
2023-05-08T23:48:06.203Z,78.28
2023-05-08T23:50:38.603Z,78.19
2023-05-08T23:53:11.180Z,78.24
2023-05-08T23:55:43.353Z,78.16
2023-05-08T23:58:15.677Z,78.22
